sensor_id;sensor_type;location;lat;lon;timestamp;P1;durP1;ratioP1;P2;durP2;ratioP2
53971;SDS011;40530;53.062;6.078;2023-11-18T00:01:26;46.72;;;23.17;;
53971;SDS011;40530;53.062;6.078;2023-11-18T00:03:56;52.38;;;24.58;;
53971;SDS011;40530;53.062;6.078;2023-11-18T00:06:22;54.55;;;24.00;;
53971;SDS011;40530;53.062;6.078;2023-11-18T00:08:48;60.25;;;27.20;;
53971;SDS011;40530;53.062;6.078;2023-11-18T00:11:14;53.53;;;24.27;;
53971;SDS011;40530;53.062;6.078;2023-11-18T00:13:40;56.85;;;25.85;;
53971;SDS011;40530;53.062;6.078;2023-11-18T00:16:09;57.35;;;25.77;;
53971;SDS011;40530;53.062;6.078;2023-11-18T00:18:40;55.55;;;26.10;;
53971;SDS011;40530;53.062;6.078;2023-11-18T00:21:06;64.15;;;29.95;;
53971;SDS011;40530;53.062;6.078;2023-11-18T00:23:33;58.05;;;28.25;;
53971;SDS011;40530;53.062;6.078;2023-11-18T00:25:59;60.22;;;27.38;;
53971;SDS011;40530;53.062;6.078;2023-11-18T00:28:25;52.25;;;25.02;;
53971;SDS011;40530;53.062;6.078;2023-11-18T00:30:51;61.97;;;26.98;;
53971;SDS011;40530;53.062;6.078;2023-11-18T00:33:17;70.65;;;32.03;;
53971;SDS011;40530;53.062;6.078;2023-11-18T00:35:43;78.07;;;31.33;;
53971;SDS011;40530;53.062;6.078;2023-11-18T00:38:10;65.75;;;32.35;;
53971;SDS011;40530;53.062;6.078;2023-11-18T00:40:36;61.65;;;27.70;;
53971;SDS011;40530;53.062;6.078;2023-11-18T00:43:02;65.97;;;28.58;;
53971;SDS011;40530;53.062;6.078;2023-11-18T00:45:28;53.83;;;26.08;;
53971;SDS011;40530;53.062;6.078;2023-11-18T00:47:54;63.42;;;29.00;;
53971;SDS011;40530;53.062;6.078;2023-11-18T00:50:20;64.80;;;28.65;;
53971;SDS011;40530;53.062;6.078;2023-11-18T00:52:46;86.88;;;39.60;;
53971;SDS011;40530;53.062;6.078;2023-11-18T00:55:14;69.10;;;33.00;;
53971;SDS011;40530;53.062;6.078;2023-11-18T00:57:43;70.07;;;35.83;;
53971;SDS011;40530;53.062;6.078;2023-11-18T01:00:11;63.80;;;30.75;;
53971;SDS011;40530;53.062;6.078;2023-11-18T01:02:39;57.88;;;27.90;;
53971;SDS011;40530;53.062;6.078;2023-11-18T01:05:06;46.08;;;25.48;;
53971;SDS011;40530;53.062;6.078;2023-11-18T01:07:34;55.45;;;27.13;;
53971;SDS011;40530;53.062;6.078;2023-11-18T01:10:01;62.67;;;28.23;;
53971;SDS011;40530;53.062;6.078;2023-11-18T01:12:28;56.60;;;26.17;;
53971;SDS011;40530;53.062;6.078;2023-11-18T01:14:54;56.50;;;26.88;;
53971;SDS011;40530;53.062;6.078;2023-11-18T01:17:20;55.05;;;26.55;;
53971;SDS011;40530;53.062;6.078;2023-11-18T01:19:47;59.10;;;27.63;;
53971;SDS011;40530;53.062;6.078;2023-11-18T01:22:13;62.55;;;28.52;;
53971;SDS011;40530;53.062;6.078;2023-11-18T01:24:40;67.10;;;28.27;;
53971;SDS011;40530;53.062;6.078;2023-11-18T01:27:06;51.63;;;25.65;;
53971;SDS011;40530;53.062;6.078;2023-11-18T01:29:36;60.70;;;27.67;;
53971;SDS011;40530;53.062;6.078;2023-11-18T01:32:02;60.95;;;28.13;;
53971;SDS011;40530;53.062;6.078;2023-11-18T01:34:37;57.15;;;27.17;;
53971;SDS011;40530;53.062;6.078;2023-11-18T01:37:04;68.40;;;28.60;;
53971;SDS011;40530;53.062;6.078;2023-11-18T01:39:35;58.90;;;27.58;;
53971;SDS011;40530;53.062;6.078;2023-11-18T01:42:01;64.78;;;28.42;;
53971;SDS011;40530;53.062;6.078;2023-11-18T01:44:28;59.58;;;28.05;;
53971;SDS011;40530;53.062;6.078;2023-11-18T01:46:57;65.03;;;27.90;;
53971;SDS011;40530;53.062;6.078;2023-11-18T01:49:23;55.15;;;27.90;;
53971;SDS011;40530;53.062;6.078;2023-11-18T01:51:52;57.10;;;27.23;;
53971;SDS011;40530;53.062;6.078;2023-11-18T01:54:19;60.05;;;28.35;;
53971;SDS011;40530;53.062;6.078;2023-11-18T01:56:45;67.55;;;29.95;;
53971;SDS011;40530;53.062;6.078;2023-11-18T01:59:12;63.85;;;28.70;;
53971;SDS011;40530;53.062;6.078;2023-11-18T02:01:45;72.50;;;29.67;;
53971;SDS011;40530;53.062;6.078;2023-11-18T02:04:13;58.95;;;28.98;;
53971;SDS011;40530;53.062;6.078;2023-11-18T02:06:39;66.35;;;30.63;;
53971;SDS011;40530;53.062;6.078;2023-11-18T02:09:05;70.07;;;31.45;;
53971;SDS011;40530;53.062;6.078;2023-11-18T02:11:32;66.75;;;30.10;;
53971;SDS011;40530;53.062;6.078;2023-11-18T02:14:06;68.97;;;30.13;;
53971;SDS011;40530;53.062;6.078;2023-11-18T02:16:36;68.57;;;31.17;;
53971;SDS011;40530;53.062;6.078;2023-11-18T02:19:02;70.25;;;31.70;;
53971;SDS011;40530;53.062;6.078;2023-11-18T02:21:30;71.18;;;32.13;;
53971;SDS011;40530;53.062;6.078;2023-11-18T02:23:58;100.53;;;34.72;;
53971;SDS011;40530;53.062;6.078;2023-11-18T02:26:24;82.15;;;34.83;;
53971;SDS011;40530;53.062;6.078;2023-11-18T02:28:51;82.97;;;31.98;;
53971;SDS011;40530;53.062;6.078;2023-11-18T02:31:30;76.38;;;32.95;;
53971;SDS011;40530;53.062;6.078;2023-11-18T02:36:31;122.65;;;33.83;;
53971;SDS011;40530;53.062;6.078;2023-11-18T02:39:11;170.02;;;36.42;;
53971;SDS011;40530;53.062;6.078;2023-11-18T02:41:42;187.27;;;35.15;;
53971;SDS011;40530;53.062;6.078;2023-11-18T02:44:10;165.95;;;34.58;;
53971;SDS011;40530;53.062;6.078;2023-11-18T02:46:36;326.20;;;38.05;;
53971;SDS011;40530;53.062;6.078;2023-11-18T02:49:03;334.55;;;37.03;;
53971;SDS011;40530;53.062;6.078;2023-11-18T02:51:29;202.75;;;32.22;;
53971;SDS011;40530;53.062;6.078;2023-11-18T02:54:04;340.83;;;39.67;;
53971;SDS011;40530;53.062;6.078;2023-11-18T02:56:31;226.68;;;35.20;;
53971;SDS011;40530;53.062;6.078;2023-11-18T02:58:57;218.70;;;34.38;;
53971;SDS011;40530;53.062;6.078;2023-11-18T03:01:24;303.10;;;35.17;;
53971;SDS011;40530;53.062;6.078;2023-11-18T03:03:52;184.93;;;32.88;;
53971;SDS011;40530;53.062;6.078;2023-11-18T03:06:20;194.30;;;31.23;;
53971;SDS011;40530;53.062;6.078;2023-11-18T03:08:46;464.77;;;41.80;;
53971;SDS011;40530;53.062;6.078;2023-11-18T03:11:12;359.33;;;38.30;;
53971;SDS011;40530;53.062;6.078;2023-11-18T03:13:38;223.43;;;33.15;;
53971;SDS011;40530;53.062;6.078;2023-11-18T03:16:07;277.15;;;34.65;;
53971;SDS011;40530;53.062;6.078;2023-11-18T03:18:41;285.50;;;32.72;;
53971;SDS011;40530;53.062;6.078;2023-11-18T03:21:11;190.45;;;31.95;;
53971;SDS011;40530;53.062;6.078;2023-11-18T03:23:37;128.77;;;35.00;;
53971;SDS011;40530;53.062;6.078;2023-11-18T03:26:03;191.40;;;32.50;;
53971;SDS011;40530;53.062;6.078;2023-11-18T03:28:30;229.52;;;32.65;;
53971;SDS011;40530;53.062;6.078;2023-11-18T03:30:56;108.25;;;31.17;;
53971;SDS011;40530;53.062;6.078;2023-11-18T03:33:22;103.45;;;31.02;;
53971;SDS011;40530;53.062;6.078;2023-11-18T03:35:48;203.15;;;35.58;;
53971;SDS011;40530;53.062;6.078;2023-11-18T03:38:15;248.23;;;34.47;;
53971;SDS011;40530;53.062;6.078;2023-11-18T03:40:42;112.65;;;31.98;;
53971;SDS011;40530;53.062;6.078;2023-11-18T03:43:10;134.57;;;33.20;;
53971;SDS011;40530;53.062;6.078;2023-11-18T03:45:38;99.63;;;30.88;;
53971;SDS011;40530;53.062;6.078;2023-11-18T03:48:04;119.28;;;32.25;;
53971;SDS011;40530;53.062;6.078;2023-11-18T03:50:31;220.65;;;37.88;;
53971;SDS011;40530;53.062;6.078;2023-11-18T03:52:57;236.95;;;34.50;;
53971;SDS011;40530;53.062;6.078;2023-11-18T03:55:23;233.00;;;32.55;;
53971;SDS011;40530;53.062;6.078;2023-11-18T03:57:51;149.80;;;33.10;;
53971;SDS011;40530;53.062;6.078;2023-11-18T04:00:17;214.63;;;34.67;;
53971;SDS011;40530;53.062;6.078;2023-11-18T04:02:45;149.50;;;33.20;;
53971;SDS011;40530;53.062;6.078;2023-11-18T04:05:11;117.97;;;33.83;;
53971;SDS011;40530;53.062;6.078;2023-11-18T04:07:37;122.25;;;33.28;;
53971;SDS011;40530;53.062;6.078;2023-11-18T04:10:07;101.90;;;33.00;;
53971;SDS011;40530;53.062;6.078;2023-11-18T04:12:35;89.10;;;34.40;;
53971;SDS011;40530;53.062;6.078;2023-11-18T04:15:01;76.47;;;32.95;;
53971;SDS011;40530;53.062;6.078;2023-11-18T04:17:29;87.93;;;34.58;;
53971;SDS011;40530;53.062;6.078;2023-11-18T04:19:55;227.32;;;39.05;;
53971;SDS011;40530;53.062;6.078;2023-11-18T04:22:22;197.68;;;37.70;;
53971;SDS011;40530;53.062;6.078;2023-11-18T04:24:48;121.13;;;35.30;;
53971;SDS011;40530;53.062;6.078;2023-11-18T04:27:15;216.07;;;36.17;;
53971;SDS011;40530;53.062;6.078;2023-11-18T04:29:41;146.80;;;35.25;;
53971;SDS011;40530;53.062;6.078;2023-11-18T04:32:07;237.27;;;41.80;;
53971;SDS011;40530;53.062;6.078;2023-11-18T04:34:38;124.63;;;34.20;;
53971;SDS011;40530;53.062;6.078;2023-11-18T04:37:06;244.63;;;41.17;;
53971;SDS011;40530;53.062;6.078;2023-11-18T04:39:32;205.73;;;38.33;;
53971;SDS011;40530;53.062;6.078;2023-11-18T04:41:58;203.63;;;37.55;;
53971;SDS011;40530;53.062;6.078;2023-11-18T04:44:24;182.23;;;37.15;;
53971;SDS011;40530;53.062;6.078;2023-11-18T04:46:50;193.50;;;41.30;;
53971;SDS011;40530;53.062;6.078;2023-11-18T04:49:16;207.25;;;38.90;;
53971;SDS011;40530;53.062;6.078;2023-11-18T04:51:42;145.60;;;36.53;;
53971;SDS011;40530;53.062;6.078;2023-11-18T04:54:08;190.52;;;36.85;;
53971;SDS011;40530;53.062;6.078;2023-11-18T04:56:35;187.43;;;35.95;;
53971;SDS011;40530;53.062;6.078;2023-11-18T04:59:02;142.02;;;34.38;;
53971;SDS011;40530;53.062;6.078;2023-11-18T05:01:29;230.57;;;37.70;;
53971;SDS011;40530;53.062;6.078;2023-11-18T05:03:55;140.40;;;34.40;;
53971;SDS011;40530;53.062;6.078;2023-11-18T05:06:22;171.95;;;34.65;;
53971;SDS011;40530;53.062;6.078;2023-11-18T05:08:48;129.80;;;32.15;;
53971;SDS011;40530;53.062;6.078;2023-11-18T05:11:14;184.25;;;34.78;;
53971;SDS011;40530;53.062;6.078;2023-11-18T05:13:40;174.30;;;34.15;;
53971;SDS011;40530;53.062;6.078;2023-11-18T05:16:07;108.03;;;31.33;;
53971;SDS011;40530;53.062;6.078;2023-11-18T05:18:35;164.07;;;34.55;;
53971;SDS011;40530;53.062;6.078;2023-11-18T05:21:01;188.68;;;34.60;;
53971;SDS011;40530;53.062;6.078;2023-11-18T05:23:30;123.63;;;30.95;;
53971;SDS011;40530;53.062;6.078;2023-11-18T05:25:56;191.88;;;32.90;;
53971;SDS011;40530;53.062;6.078;2023-11-18T05:28:23;112.00;;;32.25;;
53971;SDS011;40530;53.062;6.078;2023-11-18T05:30:49;127.43;;;33.95;;
53971;SDS011;40530;53.062;6.078;2023-11-18T05:33:16;99.60;;;29.33;;
53971;SDS011;40530;53.062;6.078;2023-11-18T05:35:45;147.52;;;32.08;;
53971;SDS011;40530;53.062;6.078;2023-11-18T05:38:18;155.20;;;34.67;;
53971;SDS011;40530;53.062;6.078;2023-11-18T05:40:46;131.00;;;35.78;;
53971;SDS011;40530;53.062;6.078;2023-11-18T05:43:32;94.10;;;32.67;;
53971;SDS011;40530;53.062;6.078;2023-11-18T05:46:04;129.73;;;31.98;;
53971;SDS011;40530;53.062;6.078;2023-11-18T05:48:45;133.05;;;33.08;;
53971;SDS011;40530;53.062;6.078;2023-11-18T05:51:11;101.28;;;33.35;;
53971;SDS011;40530;53.062;6.078;2023-11-18T05:53:40;96.40;;;32.88;;
53971;SDS011;40530;53.062;6.078;2023-11-18T05:56:09;88.40;;;31.58;;
53971;SDS011;40530;53.062;6.078;2023-11-18T05:58:35;108.40;;;32.70;;
53971;SDS011;40530;53.062;6.078;2023-11-18T06:01:03;87.55;;;33.00;;
53971;SDS011;40530;53.062;6.078;2023-11-18T06:03:30;97.68;;;32.75;;
53971;SDS011;40530;53.062;6.078;2023-11-18T06:05:56;79.13;;;31.58;;
53971;SDS011;40530;53.062;6.078;2023-11-18T06:08:22;123.22;;;37.20;;
53971;SDS011;40530;53.062;6.078;2023-11-18T06:10:49;76.32;;;32.70;;
53971;SDS011;40530;53.062;6.078;2023-11-18T06:13:17;89.63;;;33.53;;
53971;SDS011;40530;53.062;6.078;2023-11-18T06:15:43;84.72;;;32.17;;
53971;SDS011;40530;53.062;6.078;2023-11-18T06:18:09;80.00;;;33.42;;
53971;SDS011;40530;53.062;6.078;2023-11-18T06:20:35;105.35;;;45.25;;
53971;SDS011;40530;53.062;6.078;2023-11-18T06:23:01;97.28;;;36.38;;
53971;SDS011;40530;53.062;6.078;2023-11-18T06:25:27;85.03;;;36.15;;
53971;SDS011;40530;53.062;6.078;2023-11-18T06:27:54;80.35;;;32.72;;
53971;SDS011;40530;53.062;6.078;2023-11-18T06:30:20;74.97;;;33.13;;
53971;SDS011;40530;53.062;6.078;2023-11-18T06:32:47;109.72;;;33.97;;
53971;SDS011;40530;53.062;6.078;2023-11-18T06:35:13;74.30;;;31.95;;
53971;SDS011;40530;53.062;6.078;2023-11-18T06:37:40;71.50;;;33.60;;
53971;SDS011;40530;53.062;6.078;2023-11-18T06:40:07;84.57;;;35.22;;
53971;SDS011;40530;53.062;6.078;2023-11-18T06:42:44;70.50;;;30.30;;
53971;SDS011;40530;53.062;6.078;2023-11-18T06:45:13;103.07;;;37.33;;
53971;SDS011;40530;53.062;6.078;2023-11-18T06:47:40;75.65;;;33.28;;
53971;SDS011;40530;53.062;6.078;2023-11-18T06:50:10;75.30;;;31.85;;
53971;SDS011;40530;53.062;6.078;2023-11-18T06:52:40;78.78;;;32.03;;
53971;SDS011;40530;53.062;6.078;2023-11-18T06:55:07;72.18;;;30.83;;
53971;SDS011;40530;53.062;6.078;2023-11-18T06:57:33;94.53;;;43.78;;
53971;SDS011;40530;53.062;6.078;2023-11-18T06:59:59;71.97;;;33.28;;
53971;SDS011;40530;53.062;6.078;2023-11-18T07:02:25;79.32;;;35.63;;
53971;SDS011;40530;53.062;6.078;2023-11-18T07:04:51;78.05;;;33.15;;
53971;SDS011;40530;53.062;6.078;2023-11-18T07:07:17;80.63;;;33.00;;
53971;SDS011;40530;53.062;6.078;2023-11-18T07:09:43;78.05;;;32.33;;
53971;SDS011;40530;53.062;6.078;2023-11-18T07:12:09;77.25;;;32.00;;
53971;SDS011;40530;53.062;6.078;2023-11-18T07:14:35;79.40;;;33.60;;
53971;SDS011;40530;53.062;6.078;2023-11-18T07:17:01;78.78;;;31.65;;
53971;SDS011;40530;53.062;6.078;2023-11-18T07:19:29;82.85;;;32.95;;
53971;SDS011;40530;53.062;6.078;2023-11-18T07:21:58;83.85;;;33.72;;
53971;SDS011;40530;53.062;6.078;2023-11-18T07:24:24;88.13;;;33.17;;
53971;SDS011;40530;53.062;6.078;2023-11-18T07:26:50;80.78;;;32.45;;
53971;SDS011;40530;53.062;6.078;2023-11-18T07:29:16;87.90;;;32.95;;
53971;SDS011;40530;53.062;6.078;2023-11-18T07:31:42;83.78;;;33.10;;
53971;SDS011;40530;53.062;6.078;2023-11-18T07:34:10;72.90;;;31.08;;
53971;SDS011;40530;53.062;6.078;2023-11-18T07:36:36;88.93;;;35.28;;
53971;SDS011;40530;53.062;6.078;2023-11-18T07:39:02;84.30;;;30.63;;
53971;SDS011;40530;53.062;6.078;2023-11-18T07:41:28;77.88;;;32.45;;
53971;SDS011;40530;53.062;6.078;2023-11-18T07:43:56;87.82;;;32.17;;
53971;SDS011;40530;53.062;6.078;2023-11-18T07:46:22;77.05;;;31.83;;
53971;SDS011;40530;53.062;6.078;2023-11-18T07:48:50;109.80;;;51.45;;
53971;SDS011;40530;53.062;6.078;2023-11-18T07:51:20;77.32;;;32.10;;
53971;SDS011;40530;53.062;6.078;2023-11-18T07:53:49;92.05;;;33.92;;
53971;SDS011;40530;53.062;6.078;2023-11-18T07:56:15;74.43;;;31.00;;
53971;SDS011;40530;53.062;6.078;2023-11-18T07:58:42;86.55;;;33.70;;
53971;SDS011;40530;53.062;6.078;2023-11-18T08:01:10;82.50;;;30.98;;
53971;SDS011;40530;53.062;6.078;2023-11-18T08:03:36;74.68;;;30.58;;
53971;SDS011;40530;53.062;6.078;2023-11-18T08:06:03;77.43;;;32.17;;
53971;SDS011;40530;53.062;6.078;2023-11-18T08:08:32;84.18;;;31.65;;
53971;SDS011;40530;53.062;6.078;2023-11-18T08:10:58;77.45;;;31.92;;
53971;SDS011;40530;53.062;6.078;2023-11-18T08:13:25;100.05;;;34.00;;
53971;SDS011;40530;53.062;6.078;2023-11-18T08:15:54;92.05;;;34.13;;
53971;SDS011;40530;53.062;6.078;2023-11-18T08:18:20;78.78;;;32.28;;
53971;SDS011;40530;53.062;6.078;2023-11-18T08:20:46;81.60;;;32.60;;
53971;SDS011;40530;53.062;6.078;2023-11-18T08:23:12;94.18;;;34.80;;
53971;SDS011;40530;53.062;6.078;2023-11-18T08:25:38;107.85;;;43.97;;
53971;SDS011;40530;53.062;6.078;2023-11-18T08:28:07;131.27;;;60.97;;
53971;SDS011;40530;53.062;6.078;2023-11-18T08:30:34;95.15;;;36.90;;
53971;SDS011;40530;53.062;6.078;2023-11-18T08:33:02;81.43;;;35.38;;
53971;SDS011;40530;53.062;6.078;2023-11-18T08:35:29;91.90;;;35.55;;
53971;SDS011;40530;53.062;6.078;2023-11-18T08:37:56;87.20;;;35.28;;
53971;SDS011;40530;53.062;6.078;2023-11-18T08:40:22;80.57;;;32.38;;
53971;SDS011;40530;53.062;6.078;2023-11-18T08:42:48;79.80;;;33.78;;
53971;SDS011;40530;53.062;6.078;2023-11-18T08:45:21;78.60;;;33.45;;
53971;SDS011;40530;53.062;6.078;2023-11-18T08:47:47;81.93;;;33.53;;
53971;SDS011;40530;53.062;6.078;2023-11-18T08:50:14;86.50;;;34.20;;
53971;SDS011;40530;53.062;6.078;2023-11-18T08:52:42;92.22;;;34.50;;
53971;SDS011;40530;53.062;6.078;2023-11-18T08:55:11;90.03;;;35.08;;
53971;SDS011;40530;53.062;6.078;2023-11-18T08:57:46;81.60;;;33.75;;
53971;SDS011;40530;53.062;6.078;2023-11-18T09:00:27;78.60;;;32.40;;
53971;SDS011;40530;53.062;6.078;2023-11-18T09:03:13;82.40;;;33.75;;
53971;SDS011;40530;53.062;6.078;2023-11-18T09:05:43;76.50;;;33.88;;
53971;SDS011;40530;53.062;6.078;2023-11-18T09:08:21;75.75;;;31.85;;
53971;SDS011;40530;53.062;6.078;2023-11-18T09:10:47;81.95;;;32.38;;
53971;SDS011;40530;53.062;6.078;2023-11-18T09:13:13;79.18;;;32.70;;
53971;SDS011;40530;53.062;6.078;2023-11-18T09:15:39;84.32;;;32.47;;
53971;SDS011;40530;53.062;6.078;2023-11-18T09:18:07;82.72;;;31.45;;
53971;SDS011;40530;53.062;6.078;2023-11-18T09:20:35;78.93;;;31.40;;
53971;SDS011;40530;53.062;6.078;2023-11-18T09:23:01;81.38;;;32.20;;
53971;SDS011;40530;53.062;6.078;2023-11-18T09:25:27;76.38;;;32.72;;
53971;SDS011;40530;53.062;6.078;2023-11-18T09:27:53;79.13;;;31.50;;
53971;SDS011;40530;53.062;6.078;2023-11-18T09:30:19;86.80;;;35.13;;
53971;SDS011;40530;53.062;6.078;2023-11-18T09:32:45;79.10;;;33.67;;
53971;SDS011;40530;53.062;6.078;2023-11-18T09:35:16;86.43;;;35.03;;
53971;SDS011;40530;53.062;6.078;2023-11-18T09:37:44;80.97;;;33.17;;
53971;SDS011;40530;53.062;6.078;2023-11-18T09:40:14;71.95;;;32.45;;
53971;SDS011;40530;53.062;6.078;2023-11-18T09:42:43;74.20;;;34.28;;
53971;SDS011;40530;53.062;6.078;2023-11-18T09:45:09;88.78;;;38.13;;
53971;SDS011;40530;53.062;6.078;2023-11-18T09:47:45;75.85;;;33.85;;
53971;SDS011;40530;53.062;6.078;2023-11-18T09:50:18;68.90;;;30.60;;
53971;SDS011;40530;53.062;6.078;2023-11-18T09:52:49;70.75;;;31.30;;
53971;SDS011;40530;53.062;6.078;2023-11-18T09:55:28;118.55;;;59.03;;
53971;SDS011;40530;53.062;6.078;2023-11-18T09:57:59;72.25;;;34.20;;
53971;SDS011;40530;53.062;6.078;2023-11-18T10:00:31;74.85;;;33.35;;
53971;SDS011;40530;53.062;6.078;2023-11-18T10:02:58;73.10;;;32.05;;
53971;SDS011;40530;53.062;6.078;2023-11-18T10:05:27;69.85;;;33.53;;
53971;SDS011;40530;53.062;6.078;2023-11-18T10:07:55;83.07;;;33.22;;
53971;SDS011;40530;53.062;6.078;2023-11-18T10:10:23;66.28;;;30.83;;
53971;SDS011;40530;53.062;6.078;2023-11-18T10:12:52;82.60;;;37.15;;
53971;SDS011;40530;53.062;6.078;2023-11-18T10:15:22;70.88;;;32.42;;
53971;SDS011;40530;53.062;6.078;2023-11-18T10:17:49;64.95;;;32.47;;
53971;SDS011;40530;53.062;6.078;2023-11-18T10:20:47;88.55;;;41.65;;
53971;SDS011;40530;53.062;6.078;2023-11-18T10:23:16;66.35;;;30.77;;
53971;SDS011;40530;53.062;6.078;2023-11-18T10:25:46;72.63;;;31.55;;
53971;SDS011;40530;53.062;6.078;2023-11-18T10:28:26;71.20;;;31.35;;
53971;SDS011;40530;53.062;6.078;2023-11-18T10:30:55;64.38;;;31.02;;
53971;SDS011;40530;53.062;6.078;2023-11-18T10:33:28;70.50;;;32.25;;
53971;SDS011;40530;53.062;6.078;2023-11-18T10:35:58;70.60;;;29.95;;
53971;SDS011;40530;53.062;6.078;2023-11-18T10:38:28;73.03;;;30.63;;
53971;SDS011;40530;53.062;6.078;2023-11-18T10:40:55;66.03;;;29.80;;
53971;SDS011;40530;53.062;6.078;2023-11-18T10:43:22;66.20;;;31.05;;
53971;SDS011;40530;53.062;6.078;2023-11-18T10:46:07;67.23;;;29.83;;
53971;SDS011;40530;53.062;6.078;2023-11-18T10:48:43;62.92;;;30.63;;
53971;SDS011;40530;53.062;6.078;2023-11-18T10:51:12;68.07;;;29.85;;
53971;SDS011;40530;53.062;6.078;2023-11-18T10:53:49;63.80;;;29.27;;
53971;SDS011;40530;53.062;6.078;2023-11-18T10:56:18;77.20;;;30.45;;
53971;SDS011;40530;53.062;6.078;2023-11-18T10:58:49;65.32;;;30.80;;
53971;SDS011;40530;53.062;6.078;2023-11-18T11:01:15;64.65;;;29.02;;
53971;SDS011;40530;53.062;6.078;2023-11-18T11:03:52;69.30;;;32.22;;
53971;SDS011;40530;53.062;6.078;2023-11-18T11:06:21;66.55;;;30.20;;
53971;SDS011;40530;53.062;6.078;2023-11-18T11:08:48;69.88;;;30.65;;
53971;SDS011;40530;53.062;6.078;2023-11-18T11:11:16;70.75;;;30.67;;
53971;SDS011;40530;53.062;6.078;2023-11-18T11:13:46;75.00;;;32.28;;
53971;SDS011;40530;53.062;6.078;2023-11-18T11:16:13;74.63;;;33.65;;
53971;SDS011;40530;53.062;6.078;2023-11-18T11:18:45;69.20;;;28.70;;
53971;SDS011;40530;53.062;6.078;2023-11-18T11:21:16;72.35;;;33.30;;
53971;SDS011;40530;53.062;6.078;2023-11-18T11:31:43;84.25;;;33.70;;
53971;SDS011;40530;53.062;6.078;2023-11-18T11:34:18;85.43;;;35.42;;
53971;SDS011;40530;53.062;6.078;2023-11-18T11:36:48;77.10;;;35.83;;
53971;SDS011;40530;53.062;6.078;2023-11-18T11:39:16;77.22;;;34.58;;
53971;SDS011;40530;53.062;6.078;2023-11-18T11:41:55;77.82;;;33.92;;
53971;SDS011;40530;53.062;6.078;2023-11-18T11:44:22;86.13;;;36.08;;
53971;SDS011;40530;53.062;6.078;2023-11-18T11:46:58;84.40;;;38.15;;
53971;SDS011;40530;53.062;6.078;2023-11-18T11:49:26;78.93;;;37.17;;
53971;SDS011;40530;53.062;6.078;2023-11-18T11:54:27;85.68;;;38.70;;
53971;SDS011;40530;53.062;6.078;2023-11-18T11:57:01;86.32;;;37.58;;
53971;SDS011;40530;53.062;6.078;2023-11-18T12:02:23;95.55;;;40.45;;
53971;SDS011;40530;53.062;6.078;2023-11-18T12:04:49;92.25;;;41.58;;
53971;SDS011;40530;53.062;6.078;2023-11-18T12:07:22;83.63;;;39.90;;
53971;SDS011;40530;53.062;6.078;2023-11-18T12:09:50;99.53;;;41.75;;
53971;SDS011;40530;53.062;6.078;2023-11-18T12:12:23;91.45;;;39.65;;
53971;SDS011;40530;53.062;6.078;2023-11-18T12:14:55;74.28;;;36.53;;
53971;SDS011;40530;53.062;6.078;2023-11-18T12:17:21;83.28;;;37.20;;
53971;SDS011;40530;53.062;6.078;2023-11-18T12:19:50;90.72;;;39.25;;
53971;SDS011;40530;53.062;6.078;2023-11-18T12:22:23;71.22;;;33.17;;
53971;SDS011;40530;53.062;6.078;2023-11-18T12:30:50;71.05;;;33.85;;
53971;SDS011;40530;53.062;6.078;2023-11-18T12:33:04;57.30;;;29.40;;
53971;SDS011;40530;53.062;6.078;2023-11-18T12:40:54;48.63;;;25.10;;
53971;SDS011;40530;53.062;6.078;2023-11-18T12:48:45;45.42;;;23.80;;
53971;SDS011;40530;53.062;6.078;2023-11-18T12:51:16;54.40;;;23.52;;
53971;SDS011;40530;53.062;6.078;2023-11-18T12:53:49;50.88;;;24.08;;
53971;SDS011;40530;53.062;6.078;2023-11-18T12:56:21;44.53;;;22.52;;
53971;SDS011;40530;53.062;6.078;2023-11-18T12:58:50;48.83;;;22.13;;
53971;SDS011;40530;53.062;6.078;2023-11-18T13:01:16;56.40;;;23.75;;
53971;SDS011;40530;53.062;6.078;2023-11-18T13:03:44;45.97;;;22.05;;
53971;SDS011;40530;53.062;6.078;2023-11-18T13:06:10;44.67;;;19.70;;
53971;SDS011;40530;53.062;6.078;2023-11-18T13:08:42;40.80;;;19.92;;
53971;SDS011;40530;53.062;6.078;2023-11-18T13:11:08;47.50;;;21.20;;
53971;SDS011;40530;53.062;6.078;2023-11-18T13:16:07;39.00;;;18.50;;
53971;SDS011;40530;53.062;6.078;2023-11-18T13:18:45;40.08;;;20.20;;
53971;SDS011;40530;53.062;6.078;2023-11-18T13:21:18;43.85;;;20.20;;
53971;SDS011;40530;53.062;6.078;2023-11-18T13:23:45;39.05;;;17.63;;
53971;SDS011;40530;53.062;6.078;2023-11-18T13:26:13;43.67;;;21.48;;
53971;SDS011;40530;53.062;6.078;2023-11-18T13:28:39;38.85;;;17.42;;
53971;SDS011;40530;53.062;6.078;2023-11-18T13:31:06;41.63;;;21.15;;
53971;SDS011;40530;53.062;6.078;2023-11-18T13:33:38;29.63;;;16.35;;
53971;SDS011;40530;53.062;6.078;2023-11-18T13:36:05;38.63;;;19.52;;
53971;SDS011;40530;53.062;6.078;2023-11-18T13:38:32;38.08;;;18.08;;
53971;SDS011;40530;53.062;6.078;2023-11-18T13:40:58;42.33;;;19.15;;
53971;SDS011;40530;53.062;6.078;2023-11-18T13:43:28;42.55;;;20.55;;
53971;SDS011;40530;53.062;6.078;2023-11-18T13:45:55;46.40;;;21.63;;
53971;SDS011;40530;53.062;6.078;2023-11-18T13:48:27;37.15;;;19.55;;
53971;SDS011;40530;53.062;6.078;2023-11-18T13:50:53;40.88;;;18.88;;
53971;SDS011;40530;53.062;6.078;2023-11-18T13:53:19;38.45;;;18.90;;
53971;SDS011;40530;53.062;6.078;2023-11-18T13:55:46;32.33;;;16.98;;
53971;SDS011;40530;53.062;6.078;2023-11-18T13:58:13;35.97;;;17.33;;
53971;SDS011;40530;53.062;6.078;2023-11-18T14:00:40;31.20;;;17.60;;
53971;SDS011;40530;53.062;6.078;2023-11-18T14:03:07;31.55;;;15.82;;
53971;SDS011;40530;53.062;6.078;2023-11-18T14:05:36;33.90;;;16.60;;
53971;SDS011;40530;53.062;6.078;2023-11-18T14:08:02;29.10;;;16.70;;
53971;SDS011;40530;53.062;6.078;2023-11-18T14:10:34;33.90;;;17.00;;
53971;SDS011;40530;53.062;6.078;2023-11-18T14:13:06;30.13;;;15.35;;
53971;SDS011;40530;53.062;6.078;2023-11-18T14:15:36;34.95;;;17.13;;
53971;SDS011;40530;53.062;6.078;2023-11-18T14:18:03;33.90;;;16.52;;
53971;SDS011;40530;53.062;6.078;2023-11-18T14:20:29;21.75;;;13.27;;
53971;SDS011;40530;53.062;6.078;2023-11-18T14:22:57;23.77;;;14.00;;
53971;SDS011;40530;53.062;6.078;2023-11-18T14:25:26;32.83;;;16.17;;
53971;SDS011;40530;53.062;6.078;2023-11-18T14:27:53;28.00;;;16.50;;
53971;SDS011;40530;53.062;6.078;2023-11-18T14:30:19;25.70;;;14.98;;
53971;SDS011;40530;53.062;6.078;2023-11-18T14:32:45;28.75;;;14.98;;
53971;SDS011;40530;53.062;6.078;2023-11-18T14:35:11;34.88;;;17.58;;
53971;SDS011;40530;53.062;6.078;2023-11-18T14:37:42;30.00;;;16.25;;
53971;SDS011;40530;53.062;6.078;2023-11-18T14:40:15;24.42;;;15.63;;
53971;SDS011;40530;53.062;6.078;2023-11-18T14:42:50;29.52;;;15.35;;
53971;SDS011;40530;53.062;6.078;2023-11-18T14:45:17;29.77;;;15.57;;
53971;SDS011;40530;53.062;6.078;2023-11-18T14:47:43;29.42;;;14.95;;
53971;SDS011;40530;53.062;6.078;2023-11-18T14:50:22;29.83;;;14.40;;
53971;SDS011;40530;53.062;6.078;2023-11-18T14:52:51;28.15;;;15.23;;
53971;SDS011;40530;53.062;6.078;2023-11-18T14:57:50;24.70;;;14.32;;
53971;SDS011;40530;53.062;6.078;2023-11-18T15:00:16;22.38;;;12.15;;
53971;SDS011;40530;53.062;6.078;2023-11-18T15:02:51;25.55;;;12.60;;